Mirada, California
Current Conditions -  °F | °C
As of 2:07 AM on Tuesday 21 Oct 2014 (Local Time) from KFUL Reporting Station
Overcast Overcast  
Wind Chill: 67°   Ceiling: 1500
Heat Index: 67°   Visibility: 10mi
Dew Point: 61°   Wind: 5mph
Humidity: 81%   Direction: 80°E
Pressure: 29.9"   Gusts: NA
Location:  33.9021°N, 118.01°W
Report Text: KFUL 210907Z 08004KT 10SM OVC015 19/16 A2990 RMK AO2 T01940161 $
Loading
Personal Weather Stations






























Interactive Weather Map
Tropical Storm Tracking
New forecast layout! Learn more

10-Day Weather Forecast

Advertisements
Track Severe Weather on mobile